createdAt,value
2022-09-12T00:01:05.203Z,11.30
2022-09-12T00:03:33.286Z,11.30
2022-09-12T00:06:01.315Z,11.40
2022-09-12T00:08:29.261Z,11.30
2022-09-12T00:10:57.299Z,11.30
2022-09-12T00:13:25.247Z,11.30
2022-09-12T00:15:53.197Z,11.40
2022-09-12T00:18:22.483Z,11.40
2022-09-12T00:20:50.430Z,11.40
2022-09-12T00:23:18.381Z,11.50
2022-09-12T00:25:48.536Z,11.50
2022-09-12T00:28:19.047Z,11.60
2022-09-12T00:30:49.735Z,11.60
2022-09-12T00:33:18.822Z,11.70
2022-09-12T00:35:50.334Z,11.70
2022-09-12T00:38:18.509Z,11.80
2022-09-12T00:40:47.102Z,11.90
2022-09-12T00:43:34.233Z,12.00
2022-09-12T00:46:06.437Z,12.10
2022-09-12T00:48:41.374Z,12.20
2022-09-12T00:51:11.802Z,12.30
2022-09-12T00:53:41.290Z,12.30
2022-09-12T00:56:10.250Z,12.40
2022-09-12T00:58:42.771Z,12.50
2022-09-12T01:01:10.962Z,12.50
2022-09-12T01:03:39.052Z,12.60
2022-09-12T01:06:14.306Z,12.60
2022-09-12T01:08:44.716Z,12.60
2022-09-12T01:11:14.162Z,12.60
2022-09-12T01:13:42.243Z,12.60
2022-09-12T01:16:10.328Z,12.50
2022-09-12T01:18:50.658Z,12.60
2022-09-12T01:21:26.960Z,12.50
2022-09-12T01:24:23.306Z,12.40
2022-09-12T01:27:36.970Z,12.50
2022-09-12T01:30:23.188Z,12.50
2022-09-12T01:33:26.781Z,12.50
2022-09-12T01:36:20.201Z,12.60
2022-09-12T01:38:51.154Z,12.60
2022-09-12T01:41:26.312Z,12.60
2022-09-12T01:44:06.697Z,12.70
2022-09-12T01:46:43.874Z,12.70
2022-09-12T01:49:19.064Z,12.70
2022-09-12T01:51:57.301Z,12.70
2022-09-12T01:54:31.674Z,12.80
2022-09-12T01:57:04.285Z,12.80
2022-09-12T01:59:36.740Z,12.90
2022-09-12T02:02:12.286Z,12.90
2022-09-12T02:04:46.803Z,12.90
2022-09-12T02:07:20.813Z,12.90
2022-09-12T02:09:55.111Z,12.90
2022-09-12T02:12:26.714Z,12.80
2022-09-12T02:14:59.257Z,12.80
2022-09-12T02:17:30.606Z,12.90
2022-09-12T02:20:03.978Z,12.90
2022-09-12T02:22:36.230Z,12.80
2022-09-12T02:25:06.401Z,12.80
2022-09-12T02:27:39.263Z,12.80
2022-09-12T02:30:09.055Z,12.80
2022-09-12T02:32:42.181Z,12.70
2022-09-12T02:35:18.260Z,12.80
2022-09-12T02:37:57.066Z,12.70
2022-09-12T02:40:25.727Z,12.70
2022-09-12T02:42:53.827Z,12.70
2022-09-12T02:45:22.779Z,12.70
2022-09-12T02:47:57.019Z,12.70
2022-09-12T02:50:25.179Z,12.70
2022-09-12T02:52:55.472Z,12.70
2022-09-12T02:55:24.653Z,12.60
2022-09-12T02:57:52.606Z,12.70
2022-09-12T03:00:20.800Z,12.70
2022-09-12T03:03:06.107Z,12.80
2022-09-12T03:05:37.907Z,12.80
2022-09-12T03:08:19.373Z,12.70
2022-09-12T03:11:04.139Z,12.80
2022-09-12T03:13:41.915Z,12.80
2022-09-12T03:16:18.045Z,12.80
2022-09-12T03:18:59.433Z,12.80
2022-09-12T03:21:32.224Z,12.90
2022-09-12T03:24:13.763Z,12.90
2022-09-12T03:26:48.544Z,13.00
2022-09-12T03:29:19.017Z,13.10
2022-09-12T03:31:52.518Z,13.10
2022-09-12T03:34:23.171Z,13.20
2022-09-12T03:36:52.026Z,13.20
2022-09-12T03:39:20.974Z,13.20
2022-09-12T03:41:48.931Z,13.20
2022-09-12T03:44:16.906Z,13.20
2022-09-12T03:46:45.458Z,13.20
2022-09-12T03:49:13.574Z,13.20
2022-09-12T03:51:43.391Z,13.20
2022-09-12T03:54:12.210Z,13.20
2022-09-12T03:56:40.307Z,13.20
2022-09-12T03:59:08.777Z,13.20
2022-09-12T04:01:37.738Z,13.20
2022-09-12T04:04:05.731Z,13.20
2022-09-12T04:06:33.738Z,13.20
2022-09-12T04:09:03.090Z,13.20
2022-09-12T04:11:32.147Z,13.20
2022-09-12T04:14:00.234Z,13.20
2022-09-12T04:16:28.297Z,13.20
2022-09-12T04:18:56.262Z,13.20
2022-09-12T04:21:24.261Z,13.20
2022-09-12T04:23:52.567Z,13.20
2022-09-12T04:26:22.349Z,13.20
2022-09-12T04:28:56.157Z,13.20
2022-09-12T04:31:24.816Z,13.20
2022-09-12T04:33:55.204Z,13.20
2022-09-12T04:36:23.366Z,13.20
2022-09-12T04:38:52.549Z,13.10
2022-09-12T04:41:24.913Z,13.10
2022-09-12T04:43:54.772Z,13.10
2022-09-12T04:46:22.943Z,13.00
2022-09-12T04:48:54.616Z,13.00
2022-09-12T04:51:27.649Z,13.00
2022-09-12T04:53:57.751Z,13.00
2022-09-12T04:56:28.291Z,13.10
2022-09-12T04:58:58.673Z,13.10
2022-09-12T05:01:28.072Z,13.10
2022-09-12T05:03:57.501Z,13.10
2022-09-12T05:06:28.059Z,13.20
2022-09-12T05:08:57.303Z,13.20
2022-09-12T05:11:46.873Z,13.10
2022-09-12T05:14:17.495Z,13.10
2022-09-12T05:16:49.156Z,13.10
2022-09-12T05:19:18.139Z,13.10
2022-09-12T05:21:46.147Z,13.10
2022-09-12T05:24:14.085Z,13.10
2022-09-12T05:26:43.857Z,13.10
2022-09-12T05:29:13.044Z,13.20
2022-09-12T05:31:41.438Z,13.10
2022-09-12T05:34:10.052Z,13.10
2022-09-12T05:36:38.501Z,13.10
2022-09-12T05:39:06.693Z,13.10
2022-09-12T05:41:35.906Z,13.00
2022-09-12T05:44:07.800Z,13.10
2022-09-12T05:46:39.602Z,13.10
2022-09-12T05:49:09.761Z,13.10
2022-09-12T05:51:39.657Z,13.10
2022-09-12T05:54:10.098Z,13.20
2022-09-12T05:56:40.272Z,13.20
2022-09-12T05:59:13.847Z,13.20
2022-09-12T06:01:42.614Z,13.20
2022-09-12T06:04:10.785Z,13.30
2022-09-12T06:06:41.619Z,13.20
2022-09-12T06:09:10.125Z,13.20
2022-09-12T06:11:40.736Z,13.20
2022-09-12T06:14:11.301Z,13.20
2022-09-12T06:16:39.782Z,13.20
2022-09-12T06:19:13.451Z,13.20
2022-09-12T06:21:41.600Z,13.20
2022-09-12T06:24:09.883Z,13.30
2022-09-12T06:26:38.014Z,13.40
2022-09-12T06:29:06.019Z,13.40
2022-09-12T06:31:36.840Z,13.40
2022-09-12T06:34:06.972Z,13.40
2022-09-12T06:36:37.887Z,13.40
2022-09-12T06:39:08.704Z,13.40
2022-09-12T06:41:40.409Z,13.40
2022-09-12T06:44:13.403Z,13.40
2022-09-12T06:46:43.090Z,13.40
2022-09-12T06:49:11.348Z,13.40
2022-09-12T06:51:39.370Z,13.40
2022-09-12T06:54:07.448Z,13.30
2022-09-12T06:56:35.882Z,13.30
2022-09-12T06:59:04.064Z,13.40
2022-09-12T07:01:33.622Z,13.50
2022-09-12T07:04:05.197Z,13.60
2022-09-12T07:06:39.033Z,13.60
2022-09-12T07:09:09.720Z,13.70
2022-09-12T07:11:39.332Z,13.70
2022-09-12T07:14:09.308Z,13.80
2022-09-12T07:16:37.949Z,13.80
2022-09-12T07:19:09.276Z,13.80
2022-09-12T07:21:39.835Z,13.80
2022-09-12T07:24:09.715Z,13.80
2022-09-12T07:26:38.504Z,13.90
2022-09-12T07:29:35.359Z,14.00
2022-09-12T07:31:55.032Z,14.00
2022-09-12T07:34:24.291Z,14.00
2022-09-12T07:36:52.293Z,14.00
2022-09-12T07:39:20.319Z,13.90
2022-09-12T07:41:48.270Z,14.00
2022-09-12T07:44:16.236Z,14.00
2022-09-12T07:46:44.374Z,14.10
2022-09-12T07:49:13.402Z,14.10
2022-09-12T07:51:42.758Z,14.20
2022-09-12T07:54:11.071Z,14.30
2022-09-12T07:56:39.642Z,14.30
2022-09-12T07:59:07.973Z,14.40
2022-09-12T08:01:36.430Z,14.50
2022-09-12T08:04:05.129Z,14.60
2022-09-12T08:06:35.810Z,14.60
2022-09-12T08:09:07.687Z,14.70
2022-09-12T08:11:36.009Z,14.70
2022-09-12T08:14:05.579Z,14.70
2022-09-12T08:16:34.511Z,14.70
2022-09-12T08:19:03.073Z,14.70
2022-09-12T08:21:33.247Z,14.70
2022-09-12T08:24:03.489Z,14.80
2022-09-12T08:26:33.932Z,14.90
2022-09-12T08:29:02.534Z,14.90
2022-09-12T08:31:31.817Z,14.90
2022-09-12T08:34:00.757Z,15.00
2022-09-12T08:36:29.776Z,15.00
2022-09-12T08:39:00.409Z,15.10
2022-09-12T08:41:34.926Z,15.10
2022-09-12T08:44:35.470Z,15.20
2022-09-12T08:47:15.267Z,15.30
2022-09-12T08:49:51.478Z,15.40
2022-09-12T08:52:24.995Z,15.50
2022-09-12T08:54:53.737Z,15.50
2022-09-12T08:57:24.174Z,15.50
2022-09-12T08:59:53.123Z,15.60
2022-09-12T09:02:45.784Z,15.60
2022-09-12T09:05:22.261Z,15.70
2022-09-12T09:08:22.629Z,15.70
2022-09-12T09:10:54.735Z,15.70
2022-09-12T09:14:05.404Z,16.00
2022-09-12T09:16:36.030Z,16.20
2022-09-12T09:19:10.684Z,16.30
2022-09-12T09:21:43.202Z,16.40
2022-09-12T09:24:14.313Z,16.40
2022-09-12T09:26:47.452Z,16.50
2022-09-12T09:29:19.542Z,16.60
2022-09-12T09:31:50.726Z,16.80
2022-09-12T09:34:21.717Z,17.00
2022-09-12T09:36:52.498Z,17.30
2022-09-12T09:39:42.360Z,17.50
2022-09-12T09:42:18.526Z,17.70
2022-09-12T09:44:49.255Z,18.00
2022-09-12T09:47:20.216Z,18.30
2022-09-12T09:49:48.283Z,18.60
2022-09-12T09:52:18.557Z,18.90
2022-09-12T09:54:52.058Z,19.00
2022-09-12T09:57:39.470Z,19.10
2022-09-12T10:00:28.429Z,19.50
2022-09-12T10:03:06.272Z,19.70
2022-09-12T10:05:45.766Z,19.90
2022-09-12T10:08:24.339Z,20.10
2022-09-12T10:10:57.449Z,20.30
2022-09-12T10:13:37.810Z,20.50
2022-09-12T10:16:18.690Z,20.70
2022-09-12T10:18:47.191Z,21.00
2022-09-12T10:21:18.809Z,21.10
2022-09-12T10:23:48.475Z,21.40
2022-09-12T10:26:18.914Z,21.70
2022-09-12T10:28:51.631Z,21.90
2022-09-12T10:31:29.039Z,22.20
2022-09-12T10:33:59.557Z,22.50
2022-09-12T10:36:37.580Z,22.60
2022-09-12T10:39:06.825Z,22.80
2022-09-12T10:41:39.594Z,23.00
2022-09-12T10:44:09.767Z,23.00
2022-09-12T10:46:39.967Z,23.20
2022-09-12T10:49:21.248Z,23.50
2022-09-12T10:51:50.012Z,23.70
2022-09-12T10:54:21.207Z,23.90
2022-09-12T10:57:25.091Z,24.00
2022-09-12T11:00:05.668Z,24.30
2022-09-12T11:02:56.043Z,24.40
2022-09-12T11:05:38.233Z,24.70
2022-09-12T11:08:19.831Z,24.90
2022-09-12T11:10:56.917Z,25.00
2022-09-12T11:13:39.691Z,25.10
2022-09-12T11:16:17.242Z,25.10
2022-09-12T11:19:24.481Z,25.10
2022-09-12T11:22:05.826Z,25.10
2022-09-12T11:24:49.363Z,25.10
2022-09-12T11:27:37.995Z,25.20
2022-09-12T11:30:11.760Z,24.90
2022-09-12T11:33:19.658Z,25.30
2022-09-12T11:35:55.220Z,25.70
2022-09-12T11:38:58.365Z,25.90
2022-09-12T11:41:31.418Z,26.20
2022-09-12T11:44:05.514Z,25.90
2022-09-12T11:46:37.594Z,26.40
2022-09-12T11:49:15.459Z,26.50
2022-09-12T11:51:51.486Z,26.90
2022-09-12T11:54:25.462Z,27.50
2022-09-12T11:57:01.194Z,27.90
2022-09-12T11:59:36.163Z,28.10
2022-09-12T12:02:05.357Z,28.40
2022-09-12T12:04:41.011Z,28.20
2022-09-12T12:07:12.074Z,28.00
2022-09-12T12:09:48.658Z,28.30
2022-09-12T12:12:21.427Z,28.70
2022-09-12T12:14:51.939Z,29.10
2022-09-12T12:17:22.639Z,29.10
2022-09-12T12:20:04.707Z,29.30
2022-09-12T12:22:35.124Z,29.00
2022-09-12T12:25:08.089Z,29.10
2022-09-12T12:27:53.150Z,29.00
2022-09-12T12:30:57.452Z,29.60
2022-09-12T12:34:02.162Z,29.70
2022-09-12T12:36:40.158Z,29.50
2022-09-12T12:39:45.661Z,28.90
2022-09-12T12:43:02.753Z,29.10
2022-09-12T12:46:10.144Z,29.80
2022-09-12T12:48:57.841Z,30.00
2022-09-12T12:51:50.962Z,30.50
2022-09-12T12:54:49.086Z,30.50
2022-09-12T12:57:20.755Z,30.40
2022-09-12T12:59:52.618Z,30.70
2022-09-12T13:02:26.310Z,31.20
2022-09-12T13:04:56.276Z,31.60
2022-09-12T13:07:34.586Z,31.50
2022-09-12T13:10:03.143Z,31.40
2022-09-12T13:12:35.462Z,31.60
2022-09-12T13:15:04.683Z,30.80
2022-09-12T13:17:40.773Z,31.10
2022-09-12T13:20:28.262Z,31.30
2022-09-12T13:22:57.847Z,31.80
2022-09-12T13:25:29.357Z,32.40
2022-09-12T13:28:06.442Z,32.70
2022-09-12T13:30:36.245Z,32.60
2022-09-12T13:33:12.738Z,31.60
2022-09-12T13:35:51.342Z,31.20
2022-09-12T13:38:28.393Z,31.60
2022-09-12T13:41:14.743Z,31.80
2022-09-12T13:43:45.152Z,31.90
2022-09-12T13:46:17.366Z,31.60
2022-09-12T13:48:47.578Z,32.40
2022-09-12T13:51:24.107Z,32.50
2022-09-12T13:53:53.474Z,32.20
2022-09-12T13:56:22.007Z,32.00
2022-09-12T13:58:55.498Z,31.30
2022-09-12T14:01:24.155Z,31.50
2022-09-12T14:04:12.637Z,32.00
2022-09-12T14:06:46.878Z,32.50
2022-09-12T14:09:16.347Z,32.80
2022-09-12T14:11:44.607Z,33.10
2022-09-12T14:14:22.106Z,32.80
2022-09-12T14:16:54.633Z,32.30
2022-09-12T14:19:25.903Z,32.50
2022-09-12T14:21:55.231Z,32.90
2022-09-12T14:24:24.221Z,32.90
2022-09-12T14:26:56.581Z,33.20
2022-09-12T14:29:26.011Z,33.90
2022-09-12T14:32:05.702Z,33.80
2022-09-12T14:34:35.899Z,33.70
2022-09-12T14:37:08.136Z,33.30
2022-09-12T14:39:40.824Z,33.90
2022-09-12T14:42:15.327Z,33.90
2022-09-12T14:44:52.587Z,33.00
2022-09-12T14:47:24.679Z,33.30
2022-09-12T14:49:54.316Z,33.80
2022-09-12T14:52:26.640Z,34.00
2022-09-12T14:54:59.364Z,34.10
2022-09-12T14:57:40.044Z,33.80
2022-09-12T15:00:20.255Z,32.90
2022-09-12T15:02:48.940Z,32.60
2022-09-12T15:05:21.603Z,32.70
2022-09-12T15:08:01.163Z,32.90
2022-09-12T15:10:32.281Z,32.70
2022-09-12T15:13:22.471Z,32.10
2022-09-12T15:15:52.566Z,32.10
2022-09-12T15:18:22.247Z,32.00
2022-09-12T15:20:54.022Z,32.20
2022-09-12T15:23:30.114Z,32.20
2022-09-12T15:25:58.051Z,32.30
2022-09-12T15:28:26.763Z,32.10
2022-09-12T15:30:57.341Z,32.10
2022-09-12T15:33:26.305Z,32.10
2022-09-12T15:35:55.642Z,31.10
2022-09-12T15:38:26.587Z,31.00
2022-09-12T15:40:55.702Z,30.90
2022-09-12T15:43:26.094Z,30.80
2022-09-12T15:45:54.355Z,30.60
2022-09-12T15:48:22.477Z,30.40
2022-09-12T15:50:50.562Z,29.90
2022-09-12T15:53:20.042Z,29.60
2022-09-12T15:55:48.134Z,29.30
2022-09-12T15:58:16.131Z,29.30
2022-09-12T16:00:44.093Z,29.10
2022-09-12T16:03:22.579Z,28.80
2022-09-12T16:05:51.262Z,28.60
2022-09-12T16:08:20.606Z,28.20
2022-09-12T16:10:50.422Z,28.00
2022-09-12T16:13:18.447Z,27.80
2022-09-12T16:15:46.596Z,27.40
2022-09-12T16:18:14.578Z,27.10
2022-09-12T16:20:42.781Z,26.90
2022-09-12T16:23:11.879Z,26.90
2022-09-12T16:25:41.886Z,26.90
2022-09-12T16:28:10.133Z,26.80
2022-09-12T16:30:38.114Z,26.70
2022-09-12T16:33:06.047Z,26.60
2022-09-12T16:35:34.025Z,26.50
2022-09-12T16:38:02.102Z,26.40
2022-09-12T16:40:31.025Z,26.40
2022-09-12T16:43:00.317Z,26.40
2022-09-12T16:45:28.267Z,26.10
2022-09-12T16:47:56.387Z,26.00
2022-09-12T16:50:24.347Z,26.00
2022-09-12T16:52:52.295Z,25.90
2022-09-12T16:55:20.259Z,25.80
2022-09-12T16:57:49.309Z,25.60
2022-09-12T17:00:18.862Z,25.40
2022-09-12T17:02:47.292Z,25.40
2022-09-12T17:05:16.422Z,25.30
2022-09-12T17:07:44.345Z,25.20
2022-09-12T17:10:12.345Z,24.90
2022-09-12T17:12:40.371Z,24.80
2022-09-12T17:15:08.770Z,24.70
2022-09-12T17:17:38.110Z,24.50
2022-09-12T17:20:06.592Z,24.20
2022-09-12T17:22:34.971Z,23.90
2022-09-12T17:25:03.079Z,23.70
2022-09-12T17:27:31.030Z,23.40
2022-09-12T17:29:58.979Z,22.90
2022-09-12T17:32:26.951Z,22.60
2022-09-12T17:34:56.465Z,22.30
2022-09-12T17:37:24.470Z,22.10
2022-09-12T17:39:52.461Z,21.90
2022-09-12T17:42:22.490Z,21.60
2022-09-12T17:44:50.447Z,21.00
2022-09-12T17:47:18.435Z,20.90
2022-09-12T17:49:47.473Z,20.80
2022-09-12T17:52:17.348Z,20.70
2022-09-12T17:54:45.328Z,20.60
2022-09-12T17:57:13.327Z,20.50
2022-09-12T17:59:41.310Z,20.40
2022-09-12T18:02:15.728Z,20.10
2022-09-12T18:04:46.753Z,19.80
2022-09-12T18:07:18.121Z,19.70
2022-09-12T18:09:47.706Z,19.50
2022-09-12T18:12:19.846Z,19.30
2022-09-12T18:14:47.774Z,19.20
2022-09-12T18:17:15.736Z,19.00
2022-09-12T18:19:44.231Z,18.90
2022-09-12T18:22:12.274Z,18.60
2022-09-12T18:24:41.606Z,18.40
2022-09-12T18:27:09.559Z,18.10
2022-09-12T18:29:37.512Z,18.00
2022-09-12T18:32:05.584Z,17.80
2022-09-12T18:34:33.541Z,17.60
2022-09-12T18:37:05.025Z,17.40
2022-09-12T18:39:32.986Z,17.20
2022-09-12T18:42:02.304Z,17.10
2022-09-12T18:44:30.332Z,17.00
2022-09-12T18:46:58.359Z,16.90
2022-09-12T18:49:26.469Z,16.90
2022-09-12T18:51:54.483Z,16.80
2022-09-12T18:54:22.435Z,16.80
2022-09-12T18:56:50.406Z,16.80
2022-09-12T18:59:19.803Z,16.80
2022-09-12T19:01:47.976Z,16.80
2022-09-12T19:04:16.480Z,16.80
2022-09-12T19:06:46.242Z,16.80
2022-09-12T19:09:16.087Z,16.80
2022-09-12T19:11:49.411Z,16.70
2022-09-12T19:14:19.658Z,16.70
2022-09-12T19:16:47.671Z,16.60
2022-09-12T19:19:15.682Z,16.60
2022-09-12T19:21:43.818Z,16.50
2022-09-12T19:24:13.575Z,16.40
2022-09-12T19:26:41.815Z,16.30
2022-09-12T19:29:09.840Z,16.20
2022-09-12T19:31:39.169Z,16.20
2022-09-12T19:34:08.429Z,16.20
2022-09-12T19:36:46.397Z,16.20
2022-09-12T19:39:17.151Z,16.20
2022-09-12T19:41:45.881Z,16.20
2022-09-12T19:44:14.034Z,16.10
2022-09-12T19:46:43.518Z,16.00
2022-09-12T19:49:12.621Z,16.00
2022-09-12T19:51:41.003Z,16.00
2022-09-12T19:54:09.498Z,15.90
2022-09-12T19:56:37.422Z,15.90
2022-09-12T19:59:05.399Z,15.80
2022-09-12T20:01:34.582Z,15.70
2022-09-12T20:04:04.471Z,15.60
2022-09-12T20:06:32.687Z,15.50
2022-09-12T20:09:00.814Z,15.40
2022-09-12T20:11:28.902Z,15.30
2022-09-12T20:13:56.924Z,15.30
2022-09-12T20:16:28.815Z,15.20
2022-09-12T20:18:58.745Z,15.20
2022-09-12T20:21:31.395Z,15.10
2022-09-12T20:24:05.242Z,15.10
2022-09-12T20:26:33.365Z,15.10
2022-09-12T20:29:01.423Z,15.10
2022-09-12T20:31:30.217Z,15.10
2022-09-12T20:33:58.559Z,15.10
2022-09-12T20:36:27.993Z,15.10
2022-09-12T20:38:58.385Z,15.10
2022-09-12T20:41:28.569Z,15.00
2022-09-12T20:43:57.671Z,14.90
2022-09-12T20:46:27.311Z,14.80
2022-09-12T20:48:55.718Z,14.70
2022-09-12T20:51:24.496Z,14.60
2022-09-12T20:53:55.959Z,14.60
2022-09-12T20:56:24.614Z,14.60
2022-09-12T20:58:52.589Z,14.50
2022-09-12T21:01:21.245Z,14.50
2022-09-12T21:03:49.806Z,14.40
2022-09-12T21:06:18.926Z,14.50
2022-09-12T21:08:48.201Z,14.50
2022-09-12T21:11:18.442Z,14.40
2022-09-12T21:13:46.830Z,14.40
2022-09-12T21:16:16.243Z,14.40
2022-09-12T21:18:44.618Z,14.40
2022-09-12T21:21:14.162Z,14.40
2022-09-12T21:23:42.649Z,14.40
2022-09-12T21:26:10.919Z,14.40
2022-09-12T21:28:40.520Z,14.40
2022-09-12T21:31:08.603Z,14.40
2022-09-12T21:33:36.634Z,14.30
2022-09-12T21:36:05.493Z,14.20
2022-09-12T21:38:33.717Z,14.10
2022-09-12T21:41:09.569Z,14.10
2022-09-12T21:43:40.493Z,14.10
2022-09-12T21:46:09.716Z,14.10
2022-09-12T21:48:38.329Z,14.10
2022-09-12T21:51:06.581Z,14.10
2022-09-12T21:53:34.546Z,14.00
2022-09-12T21:56:03.215Z,14.00
2022-09-12T21:58:31.158Z,13.90
2022-09-12T22:01:01.246Z,13.90
2022-09-12T22:03:29.542Z,13.90
2022-09-12T22:06:01.657Z,13.80
2022-09-12T22:08:31.256Z,13.80
2022-09-12T22:11:00.806Z,13.70
2022-09-12T22:13:32.169Z,13.60
2022-09-12T22:16:02.779Z,13.60
2022-09-12T22:18:32.857Z,13.60
2022-09-12T22:21:02.409Z,13.50
2022-09-12T22:23:48.285Z,13.50
2022-09-12T22:26:16.713Z,13.50
2022-09-12T22:28:45.216Z,13.50
2022-09-12T22:31:15.444Z,13.40
2022-09-12T22:33:43.682Z,13.30
2022-09-12T22:36:12.279Z,13.30
2022-09-12T22:38:40.473Z,13.40
2022-09-12T22:41:10.386Z,13.40
2022-09-12T22:43:38.825Z,13.30
2022-09-12T22:46:07.929Z,13.30
2022-09-12T22:48:37.694Z,13.30
2022-09-12T22:51:06.379Z,13.30
2022-09-12T22:53:34.386Z,13.20
2022-09-12T22:56:02.750Z,13.10
2022-09-12T22:58:30.710Z,13.10
2022-09-12T23:00:58.691Z,13.10
2022-09-12T23:03:26.688Z,13.10
2022-09-12T23:05:56.101Z,13.10
2022-09-12T23:08:24.250Z,13.10
2022-09-12T23:10:52.199Z,13.10
2022-09-12T23:13:20.175Z,13.00
2022-09-12T23:15:48.163Z,13.00
2022-09-12T23:18:16.171Z,13.00
2022-09-12T23:20:44.093Z,13.00
2022-09-12T23:23:13.375Z,13.00
2022-09-12T23:25:41.473Z,13.00
2022-09-12T23:28:09.396Z,12.90
2022-09-12T23:30:37.936Z,12.90
2022-09-12T23:33:05.887Z,12.90
2022-09-12T23:35:33.828Z,13.00
2022-09-12T23:38:01.841Z,12.90
2022-09-12T23:40:31.124Z,12.90
2022-09-12T23:42:59.080Z,12.90
2022-09-12T23:45:27.093Z,12.90
2022-09-12T23:47:55.052Z,12.80
2022-09-12T23:50:23.689Z,12.80
2022-09-12T23:52:51.700Z,12.80
2022-09-12T23:55:19.668Z,12.80
2022-09-12T23:57:49.118Z,12.80
